Time;durP1;ratioP1;P1;durP2;ratioP2;P2;SDS_P1;SDS_P2;PMS_P1;PMS_P2;Temp;Humidity;BMP_temperature;BMP_pressure;BME280_temperature;BME280_humidity;BME280_pressure;Samples;Min_cycle;Max_cycle;Signal;HPM_P1;HPM_P2
2021/07/16 00:02:00;;;;;;;9.13;5.45;;;18.80;99.90;;;;;;5093974;28;20212;-60
2021/07/16 00:04:27;;;;;;;6.63;5.90;;;18.80;99.90;;;;;;5093845;28;20711;-60
2021/07/16 00:06:53;;;;;;;8.38;7.28;;;18.80;99.90;;;;;;5093645;28;20256;-60
2021/07/16 00:09:21;;;;;;;6.90;6.20;;;18.80;99.90;;;;;;5093565;28;20739;-61
2021/07/16 00:11:48;;;;;;;7.95;5.05;;;18.80;99.90;;;;;;5093835;28;20596;-60
2021/07/16 00:14:15;;;;;;;7.15;5.75;;;18.80;99.90;;;;;;5093718;28;20205;-60
2021/07/16 00:16:42;;;;;;;9.30;5.47;;;18.80;99.90;;;;;;5093684;28;20257;-60
2021/07/16 00:19:08;;;;;;;8.95;5.25;;;18.90;99.90;;;;;;5093968;28;20720;-60
2021/07/16 00:21:35;;;;;;;9.35;5.70;;;18.90;99.90;;;;;;5093602;28;20204;-60
2021/07/16 00:24:02;;;;;;;7.88;5.90;;;18.80;99.90;;;;;;5093981;28;20230;-61
2021/07/16 00:26:30;;;;;;;7.85;5.68;;;18.80;99.90;;;;;;5093697;28;20212;-60
2021/07/16 00:28:57;;;;;;;9.65;7.05;;;18.80;99.90;;;;;;5093631;28;20208;-60
2021/07/16 00:31:24;;;;;;;7.88;7.05;;;18.80;99.90;;;;;;5093769;28;20220;-61
2021/07/16 00:33:51;;;;;;;13.23;8.40;;;18.80;99.90;;;;;;5093288;28;20204;-61
2021/07/16 00:36:18;;;;;;;13.35;7.63;;;18.80;99.90;;;;;;5092078;28;20297;-60
2021/07/16 00:38:45;;;;;;;13.32;8.10;;;18.80;99.90;;;;;;5093495;28;20208;-60
2021/07/16 00:41:12;;;;;;;15.02;9.55;;;18.80;99.90;;;;;;5093540;28;20203;-60
2021/07/16 00:43:40;;;;;;;15.75;12.95;;;18.90;99.90;;;;;;5093386;28;20261;-60
2021/07/16 00:46:06;;;;;;;16.45;12.75;;;18.90;99.90;;;;;;5093524;28;20655;-61
2021/07/16 00:48:33;;;;;;;17.23;13.00;;;18.90;99.90;;;;;;5093155;28;20228;-60
2021/07/16 00:51:00;;;;;;;15.75;11.75;;;18.80;99.90;;;;;;5092858;28;20232;-60
2021/07/16 00:53:26;;;;;;;13.43;11.63;;;18.80;99.90;;;;;;5093095;28;20261;-60
2021/07/16 00:55:53;;;;;;;16.27;12.60;;;18.90;99.90;;;;;;5092872;28;20257;-60
2021/07/16 00:58:20;;;;;;;15.27;12.65;;;18.90;99.90;;;;;;5092871;28;20232;-59
2021/07/16 01:00:48;;;;;;;14.93;12.73;;;18.90;99.90;;;;;;5092867;28;20200;-60
2021/07/16 01:03:15;;;;;;;16.67;13.70;;;18.90;99.90;;;;;;5092698;28;20664;-60
2021/07/16 01:05:42;;;;;;;13.15;11.60;;;18.80;99.90;;;;;;5092715;28;20621;-60
2021/07/16 01:08:10;;;;;;;14.63;12.98;;;18.80;99.90;;;;;;5092757;28;20330;-60
2021/07/16 01:10:38;;;;;;;18.83;13.60;;;18.70;99.90;;;;;;5092662;28;20211;-60
2021/07/16 01:13:07;;;;;;;14.65;13.15;;;18.60;99.90;;;;;;5093296;28;20204;-60
2021/07/16 01:15:34;;;;;;;14.98;13.38;;;18.40;99.90;;;;;;5092332;28;20685;-60
2021/07/16 01:18:03;;;;;;;16.48;13.60;;;18.40;99.90;;;;;;5092159;28;20239;-61
2021/07/16 01:20:32;;;;;;;18.60;14.75;;;18.60;99.90;;;;;;5092579;28;20211;-60
2021/07/16 01:23:01;;;;;;;18.85;14.45;;;18.60;99.90;;;;;;5092605;28;20204;-60
2021/07/16 01:25:32;;;;;;;18.83;15.00;;;18.70;99.90;;;;;;5092181;28;20208;-60
2021/07/16 01:28:01;;;;;;;21.25;15.27;;;18.70;99.90;;;;;;5092173;28;20232;-61
2021/07/16 01:30:30;;;;;;;20.13;15.25;;;18.80;99.90;;;;;;5092176;28;20227;-60
2021/07/16 01:32:58;;;;;;;22.17;15.13;;;18.80;99.90;;;;;;5092287;28;20224;-60
2021/07/16 01:35:25;;;;;;;20.67;14.50;;;18.80;99.90;;;;;;5092284;28;20208;-60
2021/07/16 01:37:51;;;;;;;17.67;14.77;;;18.90;99.90;;;;;;5092052;28;20228;-60
2021/07/16 01:40:20;;;;;;;17.58;14.32;;;19.00;99.90;;;;;;5092242;28;20253;-60
2021/07/16 01:42:50;;;;;;;19.23;14.90;;;19.00;99.90;;;;;;5091985;28;20208;-60
2021/07/16 01:45:19;;;;;;;16.60;14.55;;;18.90;99.90;;;;;;5092003;28;20277;-60
2021/07/16 01:47:48;;;;;;;18.40;14.02;;;18.90;99.90;;;;;;5091598;28;20643;-61
2021/07/16 01:50:15;;;;;;;20.92;14.70;;;18.80;99.90;;;;;;5092108;28;20318;-60
2021/07/16 01:52:43;;;;;;;21.02;15.93;;;18.80;99.90;;;;;;5091927;28;20227;-60
2021/07/16 01:55:11;;;;;;;20.25;15.15;;;18.80;99.90;;;;;;5091822;28;20208;-60
2021/07/16 01:57:38;;;;;;;18.30;14.80;;;18.80;99.90;;;;;;5091808;28;20224;-61
2021/07/16 02:00:10;;;;;;;17.60;14.00;;;18.80;99.90;;;;;;5092076;28;20586;-60
2021/07/16 02:02:48;;;;;;;15.50;13.38;;;18.80;99.90;;;;;;5091963;28;20667;-60
2021/07/16 02:05:16;;;;;;;14.55;12.98;;;18.80;99.90;;;;;;5091681;28;20204;-61
2021/07/16 02:07:43;;;;;;;14.30;12.75;;;18.70;99.90;;;;;;5091554;28;20645;-60
2021/07/16 02:10:11;;;;;;;13.52;12.13;;;18.70;99.90;;;;;;5091844;28;20592;-60
2021/07/16 02:12:37;;;;;;;13.43;11.00;;;18.70;99.90;;;;;;5091586;28;20220;-60
2021/07/16 02:15:10;;;;;;;16.45;11.82;;;18.70;99.90;;;;;;5091318;28;20602;-61
2021/07/16 02:17:37;;;;;;;12.77;11.00;;;18.80;99.90;;;;;;5091357;28;20237;-61
2021/07/16 02:20:04;;;;;;;13.35;10.95;;;18.80;99.90;;;;;;5091352;28;20208;-60
2021/07/16 02:22:33;;;;;;;13.15;10.52;;;18.80;99.90;;;;;;5091363;28;20204;-60
2021/07/16 02:25:00;;;;;;;13.18;10.32;;;18.80;99.90;;;;;;5091304;28;20208;-59
2021/07/16 02:27:26;;;;;;;10.88;9.85;;;18.70;99.90;;;;;;5091523;28;20240;-60
2021/07/16 02:29:53;;;;;;;13.55;9.95;;;18.70;99.90;;;;;;5091246;28;20211;-61
2021/07/16 02:32:21;;;;;;;10.30;9.30;;;18.70;99.90;;;;;;5091125;28;20220;-60
2021/07/16 02:34:48;;;;;;;10.15;9.15;;;18.70;99.90;;;;;;5091080;28;20200;-60
2021/07/16 02:37:15;;;;;;;9.63;8.73;;;18.70;99.90;;;;;;5090939;28;20223;-61
2021/07/16 02:39:41;;;;;;;11.20;10.10;;;18.60;99.90;;;;;;5091401;28;20208;-61
2021/07/16 02:42:08;;;;;;;13.45;10.90;;;18.60;99.90;;;;;;5091156;28;20341;-61
2021/07/16 02:44:34;;;;;;;12.48;10.80;;;18.60;99.90;;;;;;5090946;28;20237;-61
2021/07/16 02:47:01;;;;;;;13.77;12.32;;;18.60;99.90;;;;;;5090976;28;20228;-60
2021/07/16 02:49:29;;;;;;;13.00;11.35;;;18.60;99.90;;;;;;5090961;28;20204;-61
2021/07/16 02:51:56;;;;;;;12.60;11.30;;;18.60;99.90;;;;;;5091552;28;20239;-61
2021/07/16 02:54:23;;;;;;;16.40;12.50;;;18.60;99.90;;;;;;5090882;28;20637;-59
2021/07/16 02:56:49;;;;;;;14.48;12.05;;;18.70;99.90;;;;;;5090980;28;20231;-60
2021/07/16 02:59:16;;;;;;;14.90;12.52;;;18.80;99.90;;;;;;5092961;28;20208;-60
2021/07/16 03:01:55;;;;;;;15.40;12.30;;;18.80;99.90;;;;;;5095353;28;20200;-61
2021/07/16 03:04:24;;;;;;;16.05;12.77;;;18.80;99.90;;;;;;5096289;28;20211;-60
2021/07/16 03:06:52;;;;;;;15.02;11.77;;;18.80;99.90;;;;;;5095570;28;20292;-60
2021/07/16 03:09:19;;;;;;;13.70;11.77;;;18.80;99.90;;;;;;5095327;28;20298;-61
2021/07/16 03:11:46;;;;;;;15.25;11.70;;;18.80;99.90;;;;;;5095060;28;20232;-60
2021/07/16 03:14:13;;;;;;;16.65;10.82;;;18.80;99.90;;;;;;5094839;28;20291;-61
2021/07/16 03:16:40;;;;;;;11.27;10.07;;;18.80;99.90;;;;;;5094732;28;20232;-61
2021/07/16 03:19:07;;;;;;;12.23;10.15;;;18.80;99.90;;;;;;5095030;28;20223;-61
2021/07/16 03:21:34;;;;;;;15.23;10.63;;;18.80;99.90;;;;;;5094805;28;20659;-60
2021/07/16 03:24:03;;;;;;;10.80;9.70;;;18.80;99.90;;;;;;5094703;28;20204;-61
2021/07/16 03:26:30;;;;;;;12.82;11.02;;;18.80;99.90;;;;;;5094670;28;20211;-60
2021/07/16 03:28:57;;;;;;;12.25;9.98;;;18.80;99.90;;;;;;5095508;28;20231;-60
2021/07/16 03:31:23;;;;;;;15.93;12.88;;;18.80;99.90;;;;;;5094503;28;20683;-61
2021/07/16 03:33:50;;;;;;;11.30;10.20;;;18.90;99.90;;;;;;5094777;28;20208;-61
2021/07/16 03:36:17;;;;;;;12.43;11.00;;;18.90;99.90;;;;;;5094746;28;20211;-61
2021/07/16 03:38:46;;;;;;;11.90;10.40;;;18.90;99.90;;;;;;5094361;28;20200;-62
2021/07/16 03:41:14;;;;;;;12.38;11.07;;;18.90;99.90;;;;;;5094523;28;20296;-62
2021/07/16 03:43:41;;;;;;;13.65;11.20;;;18.90;99.90;;;;;;5093978;28;20229;-62
2021/07/16 03:46:08;;;;;;;14.20;11.10;;;18.90;99.90;;;;;;5094381;28;20209;-61
2021/07/16 03:48:35;;;;;;;12.73;11.43;;;18.90;99.90;;;;;;5094254;28;20224;-61
2021/07/16 03:51:02;;;;;;;13.73;11.52;;;18.90;99.90;;;;;;5094343;28;20403;-61
2021/07/16 03:53:28;;;;;;;12.88;11.55;;;18.90;99.90;;;;;;5094010;28;20232;-61
2021/07/16 03:55:55;;;;;;;16.00;11.35;;;18.80;99.90;;;;;;5094041;28;20204;-62
2021/07/16 03:58:23;;;;;;;15.77;12.65;;;18.80;99.90;;;;;;5093783;28;20236;-62
2021/07/16 04:00:50;;;;;;;15.45;11.50;;;18.60;99.90;;;;;;5094176;28;20298;-60
2021/07/16 04:03:17;;;;;;;16.63;14.25;;;18.60;99.90;;;;;;5094072;28;20656;-61
2021/07/16 04:05:45;;;;;;;15.02;12.88;;;18.70;99.90;;;;;;5094206;28;20266;-61
2021/07/16 04:08:16;;;;;;;13.25;11.95;;;18.60;99.90;;;;;;5093817;28;20262;-61
2021/07/16 04:10:43;;;;;;;12.85;11.45;;;18.50;99.90;;;;;;5093634;28;20652;-61
2021/07/16 04:13:12;;;;;;;13.70;11.98;;;18.50;99.90;;;;;;5093599;28;20281;-61
2021/07/16 04:15:42;;;;;;;16.00;12.10;;;18.50;99.90;;;;;;5093356;28;20574;-61
2021/07/16 04:18:10;;;;;;;11.73;10.52;;;18.50;99.90;;;;;;5093504;28;20229;-61
2021/07/16 04:20:39;;;;;;;13.10;11.73;;;18.50;99.90;;;;;;5093564;28;20250;-62
2021/07/16 04:23:06;;;;;;;14.40;11.27;;;18.40;99.90;;;;;;5093529;28;20200;-61
2021/07/16 04:25:32;;;;;;;14.93;11.88;;;18.60;99.90;;;;;;5093280;28;20213;-62
2021/07/16 04:28:00;;;;;;;18.75;13.02;;;18.60;99.90;;;;;;5093455;28;20239;-60
2021/07/16 04:30:28;;;;;;;14.60;12.32;;;18.60;99.90;;;;;;5093534;28;20246;-62
2021/07/16 04:32:58;;;;;;;14.52;11.82;;;18.60;99.90;;;;;;5093793;28;20224;-61
2021/07/16 04:35:25;;;;;;;14.18;11.00;;;18.70;99.90;;;;;;5093335;28;20613;-62
2021/07/16 04:37:52;;;;;;;15.88;12.63;;;18.60;99.90;;;;;;5093091;28;20232;-61
2021/07/16 04:40:20;;;;;;;13.45;11.30;;;18.50;99.90;;;;;;5093498;28;20204;-60
2021/07/16 04:42:48;;;;;;;12.65;11.35;;;18.50;99.90;;;;;;5093344;28;20209;-62
2021/07/16 04:45:14;;;;;;;12.07;10.88;;;18.60;99.90;;;;;;5093090;28;20231;-61
2021/07/16 04:47:41;;;;;;;13.48;11.40;;;18.70;99.90;;;;;;5093110;28;20224;-62
2021/07/16 04:50:11;;;;;;;15.88;10.73;;;18.80;99.90;;;;;;5093008;28;20204;-60
2021/07/16 04:52:39;;;;;;;16.67;11.75;;;19.00;99.90;;;;;;5093376;28;20588;-61
2021/07/16 04:55:06;;;;;;;13.20;11.82;;;19.00;99.90;;;;;;5092949;28;20295;-61
2021/07/16 04:57:32;;;;;;;12.95;11.23;;;19.00;99.90;;;;;;5092953;28;20607;-60
2021/07/16 04:59:59;;;;;;;13.18;11.02;;;19.10;99.90;;;;;;5092721;28;20204;-61
2021/07/16 05:02:26;;;;;;;18.33;13.95;;;19.20;99.90;;;;;;5092839;28;20200;-61
2021/07/16 05:04:53;;;;;;;13.63;12.00;;;19.20;99.90;;;;;;5092577;28;20633;-60
2021/07/16 05:07:22;;;;;;;13.02;11.07;;;19.20;99.90;;;;;;5092678;28;20231;-61
2021/07/16 05:09:48;;;;;;;11.23;9.90;;;19.10;99.90;;;;;;5092635;28;20206;-60
2021/07/16 05:12:15;;;;;;;13.50;10.65;;;19.10;99.90;;;;;;5092833;28;20419;-60
2021/07/16 05:14:42;;;;;;;20.52;17.83;;;19.00;99.90;;;;;;5092583;28;20258;-62
2021/07/16 05:17:09;;;;;;;13.68;11.20;;;19.00;99.90;;;;;;5092360;28;20239;-61
2021/07/16 05:19:35;;;;;;;13.45;10.68;;;19.10;99.90;;;;;;5092837;28;20208;-61
2021/07/16 05:22:02;;;;;;;16.00;10.85;;;19.40;99.90;;;;;;5091724;28;20648;-60
2021/07/16 05:24:30;;;;;;;13.65;9.48;;;19.50;99.90;;;;;;5092434;28;20547;-61
2021/07/16 05:26:57;;;;;;;10.82;9.73;;;19.50;99.90;;;;;;5092206;28;20242;-61
2021/07/16 05:29:24;;;;;;;11.32;8.52;;;19.50;99.90;;;;;;5092133;28;20763;-60
2021/07/16 05:31:50;;;;;;;8.85;7.95;;;19.50;99.90;;;;;;5092449;28;20215;-61
2021/07/16 05:34:17;;;;;;;11.27;8.77;;;19.60;99.90;;;;;;5091871;28;20277;-61
2021/07/16 05:36:44;;;;;;;8.82;7.95;;;19.70;99.90;;;;;;5092111;28;20231;-61
2021/07/16 05:39:11;;;;;;;9.57;8.57;;;19.80;99.90;;;;;;5091964;28;20668;-60
2021/07/16 05:41:39;;;;;;;11.13;7.72;;;19.90;99.90;;;;;;5092033;28;20239;-61
2021/07/16 05:44:05;;;;;;;9.50;7.43;;;20.10;99.90;;;;;;5091772;28;20208;-62
2021/07/16 05:46:32;;;;;;;8.45;7.55;;;20.20;99.90;;;;;;5091709;28;20231;-61
2021/07/16 05:48:59;;;;;;;9.73;7.72;;;20.20;99.90;;;;;;5091740;28;20211;-61
2021/07/16 05:51:26;;;;;;;7.88;7.10;;;20.10;99.90;;;;;;5092045;28;20204;-61
2021/07/16 05:53:53;;;;;;;9.20;7.22;;;20.10;99.90;;;;;;5091585;28;20711;-61
2021/07/16 05:56:20;;;;;;;9.18;7.57;;;20.30;99.90;;;;;;5091776;28;20210;-61
2021/07/16 05:58:48;;;;;;;9.20;7.35;;;20.50;99.90;;;;;;5091943;28;20200;-61
2021/07/16 06:01:15;;;;;;;7.07;6.47;;;20.70;99.90;;;;;;5091979;28;20249;-61
2021/07/16 06:03:43;;;;;;;9.65;6.72;;;20.80;99.90;;;;;;5091609;28;20196;-61
2021/07/16 06:06:09;;;;;;;9.88;6.72;;;20.80;99.90;;;;;;5091781;28;20208;-61
2021/07/16 06:08:36;;;;;;;8.35;7.30;;;21.00;99.90;;;;;;5091620;28;20269;-61
2021/07/16 06:11:03;;;;;;;7.65;6.93;;;21.20;99.90;;;;;;5091574;28;20215;-62
2021/07/16 06:13:29;;;;;;;7.07;6.38;;;21.40;99.90;;;;;;5091311;28;20232;-61
2021/07/16 06:15:57;;;;;;;8.50;7.68;;;21.80;99.90;;;;;;5091261;28;20207;-61
2021/07/16 06:18:24;;;;;;;10.77;7.93;;;22.30;99.90;;;;;;5091410;28;20277;-61
2021/07/16 06:20:51;;;;;;;12.15;7.03;;;24.00;99.90;;;;;;5091660;28;20216;-62
2021/07/16 06:23:17;;;;;;;9.13;8.23;;;25.60;99.90;;;;;;5091344;28;20208;-61
2021/07/16 06:25:44;;;;;;;8.45;7.63;;;26.20;99.90;;;;;;5091257;28;20568;-61
2021/07/16 06:28:11;;;;;;;9.45;7.93;;;26.10;99.90;;;;;;5090890;28;20235;-61
2021/07/16 06:30:38;;;;;;;7.63;6.47;;;25.80;99.90;;;;;;5091243;28;20215;-62
2021/07/16 06:33:06;;;;;;;6.75;5.57;;;25.40;99.90;;;;;;5091212;28;20224;-62
2021/07/16 06:35:33;;;;;;;10.30;8.27;;;25.10;99.90;;;;;;5091215;28;20212;-61
2021/07/16 06:38:00;;;;;;;15.38;8.52;;;24.80;99.90;;;;;;5090950;28;20231;-62
2021/07/16 06:40:27;;;;;;;7.90;7.10;;;24.50;99.90;;;;;;5091007;28;20215;-61
2021/07/16 06:42:53;;;;;;;7.93;5.57;;;24.40;99.90;;;;;;5090803;28;20208;-61
2021/07/16 06:45:20;;;;;;;7.18;5.60;;;24.40;99.90;;;;;;5090687;28;20548;-61
2021/07/16 06:47:47;;;;;;;10.70;9.40;;;24.20;99.90;;;;;;5091077;28;20228;-61
2021/07/16 06:50:15;;;;;;;5.97;5.38;;;24.10;99.90;;;;;;5091088;28;20212;-61
2021/07/16 06:52:42;;;;;;;5.80;5.20;;;24.10;99.90;;;;;;5090878;28;20596;-60
2021/07/16 06:55:09;;;;;;;9.30;5.63;;;24.30;99.90;;;;;;5090653;28;20560;-62
2021/07/16 06:57:36;;;;;;;7.28;5.18;;;25.00;99.90;;;;;;5090605;28;20224;-61
2021/07/16 07:00:04;;;;;;;5.03;4.53;;;25.90;99.90;;;;;;5090710;28;20200;-65
2021/07/16 07:02:31;;;;;;;5.97;4.75;;;26.80;99.90;;;;;;5091369;28;20250;-61
2021/07/16 07:04:58;;;;;;;5.15;4.40;;;27.40;99.90;;;;;;5091203;28;20251;-61
2021/07/16 07:07:27;;;;;;;4.47;4.07;;;27.40;99.90;;;;;;5090731;28;20339;-61
2021/07/16 07:09:53;;;;;;;5.22;4.72;;;27.00;99.90;;;;;;5090726;28;20626;-62
2021/07/16 07:12:21;;;;;;;4.38;3.95;;;26.60;99.90;;;;;;5091139;28;20212;-60
2021/07/16 07:14:48;;;;;;;5.68;4.00;;;26.20;99.90;;;;;;5090593;28;20285;-61
2021/07/16 07:17:15;;;;;;;4.88;4.28;;;26.00;99.90;;;;;;5090788;28;20310;-60
2021/07/16 07:19:41;;;;;;;4.50;4.10;;;26.20;99.90;;;;;;5090621;28;20212;-61
2021/07/16 07:22:08;;;;;;;6.72;4.93;;;26.50;99.90;;;;;;5090685;28;20672;-59
2021/07/16 07:24:36;;;;;;;9.05;3.80;;;26.80;99.90;;;;;;5090626;28;20560;-60
2021/07/16 07:27:03;;;;;;;3.72;3.10;;;27.10;99.90;;;;;;5090719;28;20236;-61
2021/07/16 07:29:33;;;;;;;5.72;3.33;;;27.20;99.90;;;;;;5090884;28;20218;-61
2021/07/16 07:32:00;;;;;;;4.97;3.28;;;28.10;99.90;;;;;;5090543;28;20664;-60
2021/07/16 07:34:26;;;;;;;6.72;3.10;;;28.90;99.90;;;;;;5090236;28;20708;-61
2021/07/16 07:36:53;;;;;;;7.60;3.25;;;29.30;99.90;;;;;;5090474;28;20627;-61
2021/07/16 07:39:20;;;;;;;3.33;2.63;;;29.10;99.90;;;;;;5090325;28;20231;-61
2021/07/16 07:41:48;;;;;;;3.33;3.03;;;28.50;99.90;;;;;;5090576;28;20208;-61
2021/07/16 07:44:16;;;;;;;5.22;3.40;;;28.00;99.90;;;;;;5090427;28;20196;-61
2021/07/16 07:46:44;;;;;;;3.17;2.63;;;27.50;99.90;;;;;;5094204;28;20225;-60
2021/07/16 07:49:13;;;;;;;4.25;3.22;;;27.10;99.90;;;;;;5094242;28;20253;-61
2021/07/16 07:51:40;;;;;;;3.80;2.78;;;26.50;99.90;;;;;;5094169;28;20232;-61
2021/07/16 07:54:07;;;;;;;3.65;2.65;;;26.00;99.90;;;;;;5095559;28;20224;-61
2021/07/16 07:56:35;;;;;;;3.25;2.85;;;26.10;99.90;;;;;;5094082;28;20204;-61
2021/07/16 07:59:04;;;;;;;6.18;2.70;;;26.20;99.90;;;;;;5093926;28;20207;-60
2021/07/16 08:01:32;;;;;;;4.15;3.60;;;26.30;99.90;;;;;;5093991;28;20215;-61
2021/07/16 08:04:00;;;;;;;3.45;3.15;;;26.10;99.90;;;;;;5093821;28;20297;-61
2021/07/16 08:06:26;;;;;;;7.15;4.10;;;25.60;99.90;;;;;;5093813;28;20756;-61
2021/07/16 08:08:53;;;;;;;5.38;3.58;;;25.40;99.90;;;;;;5093836;28;20204;-60
2021/07/16 08:11:20;;;;;;;4.05;3.60;;;25.50;99.90;;;;;;5093846;28;20212;-61
2021/07/16 08:13:46;;;;;;;6.88;3.58;;;25.60;99.90;;;;;;5093638;28;20272;-61
2021/07/16 08:16:14;;;;;;;4.38;3.50;;;25.00;99.90;;;;;;5094011;28;20242;-61
2021/07/16 08:18:41;;;;;;;3.92;3.45;;;24.40;99.90;;;;;;5093494;28;20640;-60
2021/07/16 08:21:08;;;;;;;4.00;3.60;;;24.40;99.90;;;;;;5093889;28;20204;-61
2021/07/16 08:23:35;;;;;;;5.35;3.50;;;24.30;99.90;;;;;;5093889;28;20254;-61
2021/07/16 08:26:01;;;;;;;3.58;3.28;;;24.20;99.90;;;;;;5093835;28;20238;-60
2021/07/16 08:28:29;;;;;;;4.15;3.72;;;24.40;99.90;;;;;;5093125;28;20236;-60
2021/07/16 08:30:56;;;;;;;5.65;4.32;;;24.90;99.90;;;;;;5093459;28;20208;-61
2021/07/16 08:33:24;;;;;;;6.70;5.93;;;25.20;99.90;;;;;;5093185;28;20243;-61
2021/07/16 08:35:50;;;;;;;5.75;5.15;;;25.30;99.90;;;;;;5093543;28;20210;-61
2021/07/16 08:38:17;;;;;;;4.88;4.38;;;25.30;99.90;;;;;;5093272;28;20232;-61
2021/07/16 08:40:44;;;;;;;6.47;4.63;;;25.60;99.90;;;;;;5093480;28;20204;-61
2021/07/16 08:43:16;;;;;;;4.22;3.83;;;26.50;99.90;;;;;;5093038;28;20211;-61
2021/07/16 08:45:42;;;;;;;4.80;4.30;;;28.20;99.90;;;;;;5093468;28;20204;-60
2021/07/16 08:48:11;;;;;;;6.65;3.95;;;28.60;99.90;;;;;;5093169;28;20225;-61
2021/07/16 08:50:39;;;;;;;6.05;3.90;;;28.10;99.90;;;;;;5093282;28;20208;-61
2021/07/16 08:53:06;;;;;;;6.72;4.35;;;27.60;99.90;;;;;;5093294;28;20204;-61
2021/07/16 08:55:35;;;;;;;3.65;3.35;;;27.30;99.90;;;;;;5092675;28;20215;-61
2021/07/16 08:58:03;;;;;;;4.50;3.33;;;27.00;99.90;;;;;;5092292;28;20224;-60
2021/07/16 09:00:30;;;;;;;3.67;3.25;;;26.50;99.90;;;;;;5092761;28;20257;-61
2021/07/16 09:02:59;;;;;;;3.63;3.20;;;26.20;99.90;;;;;;5093056;28;20216;-61
2021/07/16 09:05:33;;;;;;;3.63;3.33;;;26.10;99.90;;;;;;5092602;28;20207;-60
2021/07/16 09:08:02;;;;;;;4.20;3.08;;;25.90;99.90;;;;;;5092549;28;20694;-61
2021/07/16 09:10:30;;;;;;;3.15;2.92;;;25.80;99.90;;;;;;5092591;28;20204;-60
2021/07/16 09:12:59;;;;;;;4.28;3.70;;;26.10;99.90;;;;;;5092572;28;20215;-60
2021/07/16 09:15:26;;;;;;;4.40;3.53;;;26.40;99.90;;;;;;5092576;28;20227;-61
2021/07/16 09:18:12;;;;;;;4.00;2.50;;;26.70;99.90;;;;;;5092292;28;20220;-61
2021/07/16 09:20:38;;;;;;;4.07;3.67;;;26.90;99.90;;;;;;5092612;28;20213;-61
2021/07/16 09:23:15;;;;;;;4.40;3.83;;;26.80;99.90;;;;;;5092163;28;20671;-61
2021/07/16 09:25:43;;;;;;;4.13;3.70;;;26.70;99.90;;;;;;5092260;28;20599;-60
2021/07/16 09:28:24;;;;;;;3.95;3.50;;;26.40;99.90;;;;;;5113705;22;20643;-61
2021/07/16 09:30:51;;;;;;;6.22;4.13;;;25.90;99.90;;;;;;5091609;28;20644;-58
2021/07/16 09:33:18;;;;;;;3.60;3.30;;;25.80;99.90;;;;;;5091046;28;20223;-61
2021/07/16 09:35:45;;;;;;;6.38;3.30;;;26.00;99.90;;;;;;5090882;28;20208;-61
2021/07/16 09:38:14;;;;;;;3.22;2.92;;;26.40;99.90;;;;;;5090929;28;20236;-60
2021/07/16 09:40:43;;;;;;;4.78;2.88;;;27.20;99.90;;;;;;5091172;28;20208;-60
2021/07/16 09:43:14;;;;;;;3.78;3.38;;;27.80;99.90;;;;;;5091042;28;20200;-60
2021/07/16 09:45:43;;;;;;;7.10;3.28;;;28.40;99.90;;;;;;5091176;28;20611;-62
2021/07/16 09:48:24;;;;;;;5.25;3.17;;;28.80;99.90;;;;;;5090699;28;20694;-62
2021/07/16 09:50:51;;;;;;;6.70;6.00;;;29.00;99.90;;;;;;5090895;28;20215;-62
2021/07/16 09:53:26;;;;;;;2.67;2.25;;;28.80;99.90;;;;;;5090647;28;20208;-62
2021/07/16 09:56:09;;;;;;;4.43;2.50;;;28.50;99.90;;;;;;5091495;28;20204;-61
2021/07/16 09:58:36;;;;;;;2.63;2.33;;;27.80;99.90;;;;;;5090976;28;20232;-62
2021/07/16 10:01:03;;;;;;;5.03;3.50;;;27.30;99.90;;;;;;5091401;28;20200;-63
2021/07/16 10:03:31;;;;;;;3.58;3.28;;;27.00;99.90;;;;;;5091483;28;20203;-62
2021/07/16 10:06:00;;;;;;;4.82;3.20;;;27.00;99.90;;;;;;5091158;28;20212;-63
2021/07/16 10:08:35;;;;;;;3.22;2.90;;;27.10;99.90;;;;;;5090232;28;20239;-62
2021/07/16 10:11:04;;;;;;;4.53;3.15;;;27.20;99.90;;;;;;5090853;28;20253;-63
2021/07/16 10:13:32;;;;;;;3.35;3.05;;;27.70;99.90;;;;;;5090651;28;20626;-62
2021/07/16 10:16:00;;;;;;;5.38;3.22;;;28.20;99.90;;;;;;5090504;28;20702;-61
2021/07/16 10:18:28;;;;;;;3.30;3.00;;;28.50;99.90;;;;;;5090168;28;20234;-61
2021/07/16 10:20:55;;;;;;;3.55;2.38;;;28.80;99.90;;;;;;5090617;28;20718;-63
2021/07/16 10:23:24;;;;;;;3.78;2.70;;;28.90;99.90;;;;;;5091142;28;20211;-62
2021/07/16 10:25:53;;;;;;;5.75;2.78;;;28.30;99.90;;;;;;5091384;28;20231;-62
2021/07/16 10:28:40;;;;;;;2.40;2.20;;;27.70;99.90;;;;;;5055644;28;1016961;-62
2021/07/16 10:31:43;;;;;;;3.20;2.90;;;27.30;99.90;;;;;;5091087;28;20485;-61
2021/07/16 10:34:33;;;;;;;4.30;2.40;;;26.80;99.90;;;;;;5090986;28;20220;-60
2021/07/16 10:37:02;;;;;;;3.72;2.15;;;26.50;99.90;;;;;;5091103;28;20208;-61
2021/07/16 10:39:51;;;;;;;2.90;2.22;;;26.00;99.90;;;;;;5091081;28;20254;-64
2021/07/16 10:42:43;;;;;;;3.13;2.50;;;25.60;99.90;;;;;;5091556;28;20258;-62
2021/07/16 10:45:11;;;;;;;4.45;2.65;;;25.30;99.90;;;;;;5090998;28;20300;-62
2021/07/16 10:47:40;;;;;;;7.40;2.90;;;24.60;99.90;;;;;;5090317;28;20603;-62
2021/07/16 10:50:08;;;;;;;5.55;3.53;;;24.00;99.90;;;;;;5090525;28;20224;-61
2021/07/16 10:52:49;;;;;;;4.45;2.58;;;23.70;99.90;;;;;;5090768;28;20579;-60
2021/07/16 10:55:17;;;;;;;5.07;2.72;;;23.50;99.90;;;;;;5090730;28;20552;-60
2021/07/16 10:57:48;;;;;;;4.57;2.65;;;23.40;99.90;;;;;;5091000;28;20228;-60
2021/07/16 11:00:49;;;;;;;3.13;2.80;;;23.40;99.90;;;;;;5091053;28;20215;-60
2021/07/16 11:03:16;;;;;;;3.42;2.40;;;23.50;99.90;;;;;;5091146;28;20210;-60
2021/07/16 11:05:53;;;;;;;3.00;2.67;;;23.50;99.90;;;;;;5091101;28;20207;-60
2021/07/16 11:08:42;;;;;;;5.65;3.55;;;23.50;99.90;;;;;;5091786;28;20245;-60
2021/07/16 11:11:10;;;;;;;3.90;2.80;;;23.70;99.90;;;;;;5090986;28;20200;-60
2021/07/16 11:13:39;;;;;;;4.45;3.05;;;24.00;99.90;;;;;;5090401;28;20219;-61
2021/07/16 11:16:44;;;;;;;2.78;2.20;;;24.40;99.90;;;;;;5090348;28;20219;-61
2021/07/16 11:19:24;;;;;;;4.25;1.80;;;24.40;99.90;;;;;;5090199;28;20287;-61
2021/07/16 11:22:25;;;;;;;3.15;1.80;;;24.60;99.90;;;;;;5094628;28;20210;-60
2021/07/16 11:24:57;;;;;;;5.72;2.08;;;25.00;99.90;;;;;;5076772;28;20203;-61
2021/07/16 11:27:27;;;;;;;2.50;1.73;;;25.50;99.90;;;;;;5094387;28;20236;-61
2021/07/16 11:29:56;;;;;;;1.65;1.52;;;25.90;99.90;;;;;;5094551;28;20705;-61
2021/07/16 11:32:25;;;;;;;1.95;1.60;;;26.20;99.90;;;;;;5094272;28;20204;-61
2021/07/16 11:34:55;;;;;;;1.70;1.60;;;26.50;99.90;;;;;;5093948;28;20232;-61
2021/07/16 11:37:27;;;;;;;1.60;1.50;;;26.70;99.90;;;;;;5094326;28;20634;-61
2021/07/16 11:40:00;;;;;;;3.83;1.70;;;26.60;99.90;;;;;;5094095;28;20353;-61
2021/07/16 11:42:27;;;;;;;3.85;1.60;;;26.60;99.90;;;;;;5094169;28;20212;-61
2021/07/16 11:44:55;;;;;;;2.60;2.05;;;26.70;99.90;;;;;;5093947;28;20211;-60
2021/07/16 11:47:24;;;;;;;2.20;2.00;;;26.60;99.90;;;;;;5093753;28;20235;-61
2021/07/16 11:49:52;;;;;;;2.72;2.10;;;26.50;99.90;;;;;;5093978;28;20211;-61
2021/07/16 11:52:20;;;;;;;2.58;1.98;;;26.50;99.90;;;;;;5094279;28;20226;-61
2021/07/16 11:54:49;;;;;;;2.67;2.17;;;26.80;99.90;;;;;;5093872;28;20232;-61
2021/07/16 11:57:16;;;;;;;2.38;1.80;;;27.10;99.90;;;;;;5094450;28;20224;-61
2021/07/16 11:59:50;;;;;;;4.43;2.05;;;27.10;99.90;;;;;;5094095;28;20211;-61
2021/07/16 12:02:19;;;;;;;2.10;1.85;;;26.70;99.90;;;;;;5094615;28;20215;-61
2021/07/16 12:04:48;;;;;;;2.78;2.00;;;26.70;99.90;;;;;;5096142;28;20205;-62
2021/07/16 12:07:16;;;;;;;3.65;1.90;;;27.00;99.90;;;;;;5094297;28;20228;-61
2021/07/16 12:09:45;;;;;;;3.38;1.75;;;27.60;99.90;;;;;;5094175;28;20205;-62
2021/07/16 12:12:13;;;;;;;3.78;1.70;;;27.70;99.90;;;;;;5093820;28;20205;-61
2021/07/16 12:14:48;;;;;;;1.83;1.70;;;27.70;99.90;;;;;;5094096;28;20259;-61
2021/07/16 12:17:15;;;;;;;4.90;2.10;;;27.50;99.90;;;;;;5094069;28;20238;-61
2021/07/16 12:19:44;;;;;;;3.97;1.90;;;27.40;99.90;;;;;;5093501;28;20367;-62
2021/07/16 12:22:12;;;;;;;3.90;2.00;;;27.30;99.90;;;;;;5093395;28;20203;-60
2021/07/16 12:24:41;;;;;;;2.05;1.85;;;27.30;99.90;;;;;;5092954;28;20204;-60
2021/07/16 12:27:08;;;;;;;3.90;1.85;;;27.30;99.90;;;;;;5093105;28;20228;-63
2021/07/16 12:29:35;;;;;;;4.90;2.30;;;27.20;99.90;;;;;;5093225;28;20204;-60
2021/07/16 12:32:02;;;;;;;2.97;1.90;;;27.30;99.90;;;;;;5093161;28;20231;-61
2021/07/16 12:34:29;;;;;;;2.42;1.70;;;27.20;99.90;;;;;;5092953;28;20220;-59
2021/07/16 12:37:15;;;;;;;5.78;1.90;;;27.00;99.90;;;;;;5093201;28;20632;-62
2021/07/16 12:39:43;;;;;;;3.35;1.90;;;26.70;99.90;;;;;;5092884;28;20298;-59
2021/07/16 12:42:12;;;;;;;4.55;2.15;;;26.50;99.90;;;;;;5088945;28;20220;-61
2021/07/16 12:44:39;;;;;;;2.50;1.90;;;26.50;99.90;;;;;;5072422;28;20246;-60
2021/07/16 12:47:07;;;;;;;1.88;1.77;;;26.50;99.90;;;;;;5070453;28;20240;-61